Time;durP1;ratioP1;P1;durP2;ratioP2;P2;SDS_P1;SDS_P2;PMS_P1;PMS_P2;Temp;Humidity;BMP_temperature;BMP_pressure;BME280_temperature;BME280_humidity;BME280_pressure;Samples;Min_cycle;Max_cycle;Signal;HPM_P1;HPM_P2
2023/12/25 00:00:28;;;;;;;0.20;0.20;;;;;;;10.54;100.00;100408.75;5096427;28;20020;-58
2023/12/25 00:02:53;;;;;;;0.20;0.20;;;;;;;10.53;100.00;100417.34;5096829;28;20035;-58
2023/12/25 00:05:19;;;;;;;0.20;0.20;;;;;;;10.52;100.00;100410.44;5095474;28;20586;-58
2023/12/25 00:07:44;;;;;;;0.20;0.20;;;;;;;10.52;100.00;100412.13;5096475;28;20035;-58
2023/12/25 00:10:09;;;;;;;0.20;0.20;;;;;;;10.50;100.00;100406.94;5095482;28;20024;-58
2023/12/25 00:12:34;;;;;;;0.30;0.30;;;;;;;10.47;100.00;100412.03;5095561;28;20103;-58
2023/12/25 00:15:00;;;;;;;0.20;0.20;;;;;;;10.46;100.00;100410.28;5096342;28;20114;-58
2023/12/25 00:17:25;;;;;;;0.20;0.20;;;;;;;10.44;100.00;100401.63;5095975;28;20034;-58
2023/12/25 00:19:50;;;;;;;0.30;0.30;;;;;;;10.44;100.00;100406.78;5095558;28;20430;-58
2023/12/25 00:22:16;;;;;;;0.20;0.20;;;;;;;10.42;100.00;100393.03;5095857;28;20024;-58
2023/12/25 00:24:41;;;;;;;0.20;0.20;;;;;;;10.39;100.00;100390.34;5096063;28;20036;-58
2023/12/25 00:27:07;;;;;;;0.20;0.20;;;;;;;10.38;100.00;100396.38;5095226;28;20028;-59
2023/12/25 00:29:32;;;;;;;0.20;0.20;;;;;;;10.37;100.00;100386.91;5095232;28;20024;-58
2023/12/25 00:31:57;;;;;;;0.20;0.20;;;;;;;10.35;100.00;100389.44;5096095;28;20035;-59
2023/12/25 00:34:23;;;;;;;0.30;0.30;;;;;;;10.34;100.00;100394.50;5094850;28;20020;-59
2023/12/25 00:36:48;;;;;;;0.20;0.20;;;;;;;10.35;100.00;100403.97;5095874;28;20036;-58
2023/12/25 00:39:13;;;;;;;0.20;0.20;;;;;;;10.34;100.00;100391.94;5095445;28;20031;-58
2023/12/25 00:41:39;;;;;;;0.20;0.20;;;;;;;10.33;100.00;100396.22;5095225;28;20031;-59
2023/12/25 00:44:04;;;;;;;0.20;0.20;;;;;;;10.33;100.00;100401.38;5094832;28;20024;-59
2023/12/25 00:46:29;;;;;;;0.20;0.20;;;;;;;10.34;100.00;100389.34;5094198;28;20044;-59
2023/12/25 00:48:55;;;;;;;0.20;0.20;;;;;;;10.33;100.00;100390.22;5094960;28;20028;-59
2023/12/25 00:51:20;;;;;;;0.20;0.20;;;;;;;10.35;100.00;100409.13;5094837;28;20451;-58
2023/12/25 00:53:45;;;;;;;0.20;0.20;;;;;;;10.38;100.00;100411.81;5094739;28;20027;-58
2023/12/25 00:56:11;;;;;;;0.20;0.20;;;;;;;10.40;100.00;100414.44;5098213;28;20031;-58
2023/12/25 00:58:36;;;;;;;0.20;0.20;;;;;;;10.42;100.00;100418.78;5106237;28;20534;-58
2023/12/25 01:01:01;;;;;;;0.20;0.20;;;;;;;10.41;100.00;100411.03;5094495;28;20338;-58
2023/12/25 01:03:27;;;;;;;0.20;0.20;;;;;;;10.42;100.00;100418.78;5095188;28;20417;-58
2023/12/25 01:05:52;;;;;;;0.20;0.20;;;;;;;10.43;100.00;100430.84;5095300;28;20416;-59
2023/12/25 01:08:18;;;;;;;0.20;0.20;;;;;;;10.45;100.00;100439.47;5094065;28;20603;-58
2023/12/25 01:10:43;;;;;;;0.20;0.20;;;;;;;10.47;100.00;100422.34;5100721;28;20484;-58
2023/12/25 01:13:08;;;;;;;0.20;0.20;;;;;;;10.50;100.00;100424.13;5112819;28;20417;-59
2023/12/25 01:15:33;;;;;;;0.20;0.20;;;;;;;10.49;100.00;100415.50;5114414;28;20038;-59
2023/12/25 01:17:59;;;;;;;0.30;0.30;;;;;;;10.49;100.00;100417.22;5115344;28;20016;-58
2023/12/25 01:20:24;;;;;;;0.20;0.20;;;;;;;10.48;100.00;100413.78;5115265;28;20024;-59
2023/12/25 01:22:50;;;;;;;0.30;0.30;;;;;;;10.48;100.00;100413.78;5114592;28;20020;-58
2023/12/25 01:25:15;;;;;;;0.20;0.20;;;;;;;10.48;100.00;100426.66;5114977;28;20024;-59
2023/12/25 01:27:41;;;;;;;0.20;0.20;;;;;;;10.49;100.00;100420.66;5115501;28;20053;-59
2023/12/25 01:30:10;;;;;;;0.30;0.30;;;;;;;10.51;100.00;100421.56;5114581;28;20090;-59
2023/12/25 01:32:36;;;;;;;0.20;0.20;;;;;;;10.51;100.00;100431.88;5115344;28;20042;-59
2023/12/25 01:35:02;;;;;;;0.30;0.30;;;;;;;10.52;100.00;100440.47;5115234;28;20024;-58
2023/12/25 01:37:27;;;;;;;0.20;0.20;;;;;;;10.54;100.00;100444.81;5113913;28;20489;-58
2023/12/25 01:39:52;;;;;;;0.20;0.20;;;;;;;10.55;100.00;100440.56;5115337;28;20081;-59
2023/12/25 01:42:18;;;;;;;0.28;0.28;;;;;;;10.56;100.00;100436.25;5114683;28;20031;-58
2023/12/25 01:44:44;;;;;;;0.30;0.30;;;;;;;10.58;100.00;100442.34;5114307;28;20027;-59
2023/12/25 01:47:11;;;;;;;0.13;0.13;;;;;;;10.58;100.00;100435.47;5114531;28;20043;-59
2023/12/25 01:49:37;;;;;;;0.20;0.20;;;;;;;10.59;100.00;100436.31;5115003;28;20020;-58
2023/12/25 01:52:02;;;;;;;0.20;0.20;;;;;;;10.59;100.00;100441.47;5114026;28;20077;-59
2023/12/25 01:54:28;;;;;;;0.20;0.20;;;;;;;10.60;100.00;100438.94;5114299;28;20463;-58
2023/12/25 01:56:53;;;;;;;0.20;0.20;;;;;;;10.60;100.00;100438.06;5114686;28;20445;-58
2023/12/25 01:59:18;;;;;;;0.20;0.20;;;;;;;10.62;100.00;100441.56;5113742;28;20424;-58
2023/12/25 02:01:43;;;;;;;0.20;0.20;;;;;;;10.64;100.00;100442.44;5114767;28;20020;-58
2023/12/25 02:04:09;;;;;;;0.20;0.20;;;;;;;10.65;100.00;100431.31;5113417;28;20180;-58
2023/12/25 02:06:35;;;;;;;0.20;0.20;;;;;;;10.67;100.00;100437.38;5114693;28;20023;-59
2023/12/25 02:09:02;;;;;;;0.20;0.20;;;;;;;10.66;100.00;100439.06;5114477;28;20456;-58
2023/12/25 02:11:28;;;;;;;0.20;0.20;;;;;;;10.67;100.00;100451.13;5113598;28;20183;-58
2023/12/25 02:13:56;;;;;;;0.20;0.20;;;;;;;10.67;100.00;100453.69;5114452;28;20106;-59
2023/12/25 02:16:22;;;;;;;0.30;0.30;;;;;;;10.66;100.00;100451.97;5114028;28;20034;-59
2023/12/25 02:18:48;;;;;;;0.20;0.20;;;;;;;10.66;100.00;100451.97;5113500;28;20028;-59
2023/12/25 02:21:14;;;;;;;0.20;0.20;;;;;;;10.70;100.00;100455.47;5113886;28;20474;-59
2023/12/25 02:23:42;;;;;;;0.20;0.20;;;;;;;10.71;100.00;100467.53;5114397;28;20455;-58
2023/12/25 02:26:08;;;;;;;0.20;0.20;;;;;;;10.71;100.00;100455.50;5113434;28;20391;-59
2023/12/25 02:28:33;;;;;;;0.20;0.20;;;;;;;10.75;100.00;100453.88;5113944;28;20462;-59
2023/12/25 02:30:59;;;;;;;0.20;0.20;;;;;;;10.79;100.00;100450.53;5114069;28;20428;-58
2023/12/25 02:33:24;;;;;;;0.20;0.20;;;;;;;10.82;100.00;100466.09;5112915;28;20034;-59
2023/12/25 02:35:50;;;;;;;0.20;0.20;;;;;;;10.83;100.00;100469.50;5113439;28;20027;-59
2023/12/25 02:38:15;;;;;;;0.20;0.20;;;;;;;10.86;100.00;100462.72;5113793;28;20024;-59
2023/12/25 02:40:40;;;;;;;0.10;0.10;;;;;;;10.87;100.00;100464.47;5112992;28;20105;-58
2023/12/25 02:43:07;;;;;;;0.20;0.20;;;;;;;10.89;100.00;100476.53;5113954;28;20421;-58
2023/12/25 02:45:32;;;;;;;0.20;0.20;;;;;;;10.93;100.00;100473.19;5113288;28;20451;-59
2023/12/25 02:47:57;;;;;;;0.28;0.28;;;;;;;10.95;100.00;100477.53;5112826;28;20035;-59
2023/12/25 02:50:23;;;;;;;0.20;0.20;;;;;;;10.97;100.00;100481.00;5113265;28;20111;-59
2023/12/25 02:52:48;;;;;;;0.20;0.20;;;;;;;10.98;100.00;100471.56;5113795;28;20027;-58
2023/12/25 02:55:13;;;;;;;0.20;0.20;;;;;;;11.03;100.00;100480.28;5112459;28;20119;-59
2023/12/25 02:57:39;;;;;;;0.30;0.30;;;;;;;11.05;100.00;100488.91;5113707;28;20068;-58
2023/12/25 03:00:05;;;;;;;0.20;0.20;;;;;;;11.02;100.00;100489.72;5113881;28;20065;-59
2023/12/25 03:02:30;;;;;;;0.20;0.20;;;;;;;11.03;100.00;100500.91;5112397;28;20475;-58
2023/12/25 03:04:56;;;;;;;0.20;0.20;;;;;;;11.03;100.00;100485.44;5113393;28;20026;-59
2023/12/25 03:07:21;;;;;;;0.20;0.20;;;;;;;11.04;100.00;100474.28;5112783;28;20024;-58
2023/12/25 03:09:46;;;;;;;0.10;0.10;;;;;;;11.03;100.00;100480.28;5113393;28;20081;-58
2023/12/25 03:12:12;;;;;;;0.20;0.20;;;;;;;11.04;100.00;100482.03;5113190;28;20020;-58
2023/12/25 03:14:37;;;;;;;0.20;0.20;;;;;;;11.05;100.00;100478.59;5112085;28;20028;-58
2023/12/25 03:17:03;;;;;;;0.20;0.20;;;;;;;11.07;100.00;100471.78;5113127;28;20015;-58
2023/12/25 03:19:29;;;;;;;0.20;0.20;;;;;;;11.09;100.00;100474.38;5112716;28;20407;-59
2023/12/25 03:21:54;;;;;;;0.20;0.20;;;;;;;11.08;100.00;100473.50;5112471;28;20510;-58
2023/12/25 03:24:19;;;;;;;0.20;0.20;;;;;;;11.07;100.00;100478.66;5112958;28;20019;-58
2023/12/25 03:26:45;;;;;;;0.20;0.20;;;;;;;11.07;100.00;100483.81;5113454;28;20035;-59
2023/12/25 03:29:10;;;;;;;0.20;0.20;;;;;;;11.04;100.00;100479.44;5112455;28;20032;-59
2023/12/25 03:31:35;;;;;;;0.20;0.20;;;;;;;11.02;100.00;100488.84;5113325;28;20024;-59
2023/12/25 03:34:00;;;;;;;0.20;0.20;;;;;;;11.02;100.00;100478.53;5113272;28;20031;-59
2023/12/25 03:36:26;;;;;;;0.20;0.20;;;;;;;11.04;100.00;100476.88;5111926;28;20027;-59
2023/12/25 03:38:51;;;;;;;0.20;0.20;;;;;;;11.04;100.00;100489.78;5113402;28;20102;-59
2023/12/25 03:41:17;;;;;;;0.20;0.20;;;;;;;11.03;100.00;100486.31;5113135;28;20407;-59
2023/12/25 03:43:42;;;;;;;0.20;0.20;;;;;;;11.01;100.00;100493.16;5112449;28;20464;-58
2023/12/25 03:46:07;;;;;;;0.20;0.20;;;;;;;11.02;100.00;100491.44;5113411;28;20022;-59
2023/12/25 03:48:32;;;;;;;0.20;0.20;;;;;;;11.03;100.00;100498.34;5112891;28;20095;-58
2023/12/25 03:50:59;;;;;;;0.20;0.20;;;;;;;11.03;100.00;100506.06;5112467;28;20421;-59
2023/12/25 03:53:24;;;;;;;0.20;0.20;;;;;;;11.01;100.00;100507.72;5112941;28;20115;-59
2023/12/25 03:55:49;;;;;;;0.20;0.20;;;;;;;11.00;100.00;100512.03;5112875;28;20435;-58
2023/12/25 03:58:15;;;;;;;0.20;0.20;;;;;;;11.02;100.00;100509.47;5112140;28;20028;-58
2023/12/25 04:00:40;;;;;;;0.20;0.20;;;;;;;11.00;100.00;100501.72;5113086;28;20019;-58
2023/12/25 04:03:05;;;;;;;0.20;0.20;;;;;;;11.00;100.00;100501.72;5113020;28;20459;-58
2023/12/25 04:05:31;;;;;;;0.20;0.20;;;;;;;10.99;100.00;100504.28;5111807;28;20023;-59
2023/12/25 04:07:56;;;;;;;0.20;0.20;;;;;;;10.95;100.00;100502.44;5112601;28;20074;-58
2023/12/25 04:10:21;;;;;;;0.20;0.20;;;;;;;10.91;100.00;100505.78;5112719;28;20129;-59
2023/12/25 04:12:47;;;;;;;0.20;0.20;;;;;;;10.86;100.00;100509.13;5111866;28;20106;-59
2023/12/25 04:15:12;;;;;;;0.20;0.20;;;;;;;10.82;100.00;100501.28;5112266;28;20031;-59
2023/12/25 04:17:37;;;;;;;0.17;0.17;;;;;;;10.76;100.00;100496.88;5112460;28;20024;-58
2023/12/25 04:20:03;;;;;;;0.20;0.20;;;;;;;10.73;100.00;100496.81;5111868;28;20031;-59
2023/12/25 04:22:28;;;;;;;0.20;0.20;;;;;;;10.70;100.00;100481.25;5112435;28;20027;-59
2023/12/25 04:24:54;;;;;;;0.20;0.20;;;;;;;10.67;100.00;100494.94;5112244;28;20080;-59
2023/12/25 04:27:19;;;;;;;0.20;0.20;;;;;;;10.67;100.00;100486.34;5114742;28;20390;-59
2023/12/25 04:29:45;;;;;;;0.20;0.20;;;;;;;10.64;100.00;100492.31;5116589;28;20129;-59
2023/12/25 04:32:10;;;;;;;0.20;0.20;;;;;;;10.65;100.00;100490.59;5115425;28;20031;-59
2023/12/25 04:34:36;;;;;;;0.20;0.20;;;;;;;10.64;100.00;100486.25;5116297;28;20096;-59
2023/12/25 04:37:01;;;;;;;0.20;0.20;;;;;;;10.62;100.00;100493.97;5116259;28;20074;-59
2023/12/25 04:39:27;;;;;;;0.20;0.20;;;;;;;10.61;100.00;100486.19;5115390;28;20475;-59
2023/12/25 04:41:52;;;;;;;0.20;0.20;;;;;;;10.58;100.00;100487.00;5116353;28;20027;-59
2023/12/25 04:44:17;;;;;;;0.22;0.22;;;;;;;10.58;100.00;100491.28;5116010;28;20460;-59
2023/12/25 04:46:42;;;;;;;0.20;0.20;;;;;;;10.57;100.00;100479.25;5115287;28;20052;-59
2023/12/25 04:49:08;;;;;;;0.20;0.20;;;;;;;10.53;100.00;100474.03;5115889;28;20391;-59
2023/12/25 04:51:33;;;;;;;0.20;0.20;;;;;;;10.52;100.00;100479.13;5116080;28;20031;-59
2023/12/25 04:53:59;;;;;;;0.20;0.20;;;;;;;10.49;100.00;100468.75;5115501;28;20019;-59
2023/12/25 04:56:24;;;;;;;0.20;0.20;;;;;;;10.48;100.00;100470.47;5115781;28;20036;-59
2023/12/25 04:58:50;;;;;;;0.20;0.20;;;;;;;10.46;100.00;100463.53;5115850;28;20019;-59
2023/12/25 05:01:15;;;;;;;0.20;0.20;;;;;;;10.43;100.00;100461.75;5114865;28;20064;-59
2023/12/25 05:03:41;;;;;;;0.20;0.20;;;;;;;10.42;100.00;100467.75;5097691;28;20394;-59
2023/12/25 05:06:06;;;;;;;0.20;0.20;;;;;;;10.43;100.00;100461.75;5116064;28;20027;-59
2023/12/25 05:08:32;;;;;;;0.20;0.20;;;;;;;10.43;100.00;100456.59;5114795;28;20016;-59
2023/12/25 05:10:58;;;;;;;0.20;0.20;;;;;;;10.44;100.00;100460.91;5115815;28;20027;-59
2023/12/25 05:13:23;;;;;;;0.20;0.20;;;;;;;10.44;100.00;100466.06;5115286;28;20028;-59
2023/12/25 05:15:48;;;;;;;0.20;0.20;;;;;;;10.43;100.00;100471.16;5102167;28;20042;-59
2023/12/25 05:18:14;;;;;;;0.20;0.20;;;;;;;10.42;100.00;100460.00;5094837;28;20059;-59
2023/12/25 05:20:39;;;;;;;0.32;0.28;;;;;;;10.43;100.00;100474.63;5094993;28;20436;-59
2023/12/25 05:23:05;;;;;;;0.20;0.20;;;;;;;10.42;100.00;100457.44;5094578;28;20086;-59
2023/12/25 05:25:30;;;;;;;0.20;0.20;;;;;;;10.41;100.00;100458.25;5094759;28;20129;-59
2023/12/25 05:27:55;;;;;;;0.20;0.20;;;;;;;10.40;100.00;100456.50;5076981;28;20020;-58
2023/12/25 05:30:21;;;;;;;0.20;0.20;;;;;;;10.38;100.00;100453.03;5093890;28;20023;-59
2023/12/25 05:32:46;;;;;;;0.20;0.20;;;;;;;10.38;100.00;100460.78;5094758;28;20426;-59
2023/12/25 05:35:11;;;;;;;0.20;0.20;;;;;;;10.36;100.00;100457.28;5093236;28;20498;-59
2023/12/25 05:37:37;;;;;;;0.25;0.25;;;;;;;10.35;100.00;100458.06;5094517;28;20442;-59
2023/12/25 05:40:02;;;;;;;0.20;0.20;;;;;;;10.33;100.00;100470.06;5094159;28;20023;-59
2023/12/25 05:42:28;;;;;;;0.20;0.20;;;;;;;10.30;100.00;100473.44;5093623;28;20464;-59
2023/12/25 05:44:53;;;;;;;0.20;0.20;;;;;;;10.28;100.00;100461.34;5094680;28;20034;-59
2023/12/25 05:47:18;;;;;;;0.20;0.20;;;;;;;10.28;100.00;100459.63;5093937;28;20055;-59
2023/12/25 05:49:44;;;;;;;0.20;0.20;;;;;;;10.27;100.00;100460.47;5093666;28;20040;-59
2023/12/25 05:52:09;;;;;;;0.20;0.20;;;;;;;10.26;100.00;100461.28;5094558;28;20150;-62
2023/12/25 05:54:34;;;;;;;0.20;0.20;;;;;;;10.27;100.00;100460.47;5094626;28;20036;-59
2023/12/25 05:56:59;;;;;;;0.20;0.20;;;;;;;10.28;100.00;100458.78;5093651;28;20055;-59
2023/12/25 05:59:25;;;;;;;0.20;0.20;;;;;;;10.29;100.00;100457.91;5093842;28;20016;-59
2023/12/25 06:01:51;;;;;;;0.20;0.20;;;;;;;10.29;100.00;100473.38;5094136;28;20034;-59
2023/12/25 06:04:17;;;;;;;0.20;0.20;;;;;;;10.28;100.00;100461.34;5092984;28;20101;-59
2023/12/25 06:06:42;;;;;;;0.20;0.20;;;;;;;10.27;100.00;100463.03;5094226;28;20106;-59
2023/12/25 06:09:10;;;;;;;0.20;0.20;;;;;;;10.27;100.00;100470.75;5093671;28;20105;-59
2023/12/25 06:11:35;;;;;;;0.20;0.20;;;;;;;10.26;100.00;100469.00;5093451;28;20118;-59
2023/12/25 06:14:01;;;;;;;0.10;0.10;;;;;;;10.26;100.00;100457.84;5093945;28;20439;-59
2023/12/25 06:16:26;;;;;;;0.20;0.20;;;;;;;10.27;100.00;100468.19;5093582;28;20035;-59
2023/12/25 06:18:51;;;;;;;0.20;0.20;;;;;;;10.27;100.00;100467.34;5093053;28;20030;-59
2023/12/25 06:21:16;;;;;;;0.20;0.20;;;;;;;10.27;100.00;100469.91;5093734;28;20028;-59
2023/12/25 06:23:43;;;;;;;0.10;0.10;;;;;;;10.28;100.00;100463.94;5093956;28;20028;-59
2023/12/25 06:26:08;;;;;;;0.20;0.20;;;;;;;10.28;100.00;100448.47;5093266;28;20093;-59
2023/12/25 06:28:33;;;;;;;0.20;0.20;;;;;;;10.29;100.00;100463.06;5093496;28;20410;-59
2023/12/25 06:30:59;;;;;;;0.17;0.17;;;;;;;10.30;100.00;100457.09;5093594;28;20476;-59
2023/12/25 06:33:24;;;;;;;0.10;0.10;;;;;;;10.32;100.00;100458.00;5092336;28;20039;-59
2023/12/25 06:35:49;;;;;;;0.20;0.20;;;;;;;10.31;100.00;100462.28;5093752;28;20052;-59
2023/12/25 06:38:15;;;;;;;0.20;0.20;;;;;;;10.31;100.00;100466.56;5093173;28;20052;-59
2023/12/25 06:40:40;;;;;;;0.20;0.20;;;;;;;10.32;100.00;100461.44;5092821;28;20525;-59
2023/12/25 06:43:07;;;;;;;0.17;0.17;;;;;;;10.34;100.00;100461.47;5093719;28;20032;-59
2023/12/25 06:45:33;;;;;;;0.20;0.20;;;;;;;10.33;100.00;100470.06;5092381;28;20028;-60
2023/12/25 06:47:58;;;;;;;0.13;0.13;;;;;;;10.32;100.00;100468.31;5093088;28;20098;-59
2023/12/25 06:50:23;;;;;;;0.20;0.20;;;;;;;10.32;100.00;100463.16;5093124;28;20027;-59
2023/12/25 06:52:48;;;;;;;0.20;0.20;;;;;;;10.30;100.00;100485.41;5092543;28;20031;-59
2023/12/25 06:55:14;;;;;;;0.20;0.20;;;;;;;10.30;100.00;100491.47;5092998;28;20059;-60
2023/12/25 06:57:39;;;;;;;0.30;0.30;;;;;;;10.28;100.00;100502.56;5093381;28;20020;-59
2023/12/25 07:00:05;;;;;;;0.20;0.20;;;;;;;10.27;100.00;100506.81;5092496;28;20020;-59
2023/12/25 07:02:31;;;;;;;0.20;0.20;;;;;;;10.27;100.00;100513.69;5092835;28;20058;-59
2023/12/25 07:04:56;;;;;;;0.20;0.20;;;;;;;10.25;100.00;100517.91;5093039;28;20357;-59
2023/12/25 07:07:21;;;;;;;0.20;0.20;;;;;;;10.23;100.00;100511.88;5092159;28;20036;-60
2023/12/25 07:09:47;;;;;;;0.20;0.20;;;;;;;10.00;100.00;100514.72;5092474;28;20026;-60
2023/12/25 07:12:12;;;;;;;0.30;0.30;;;;;;;9.76;100.00;100528.66;5092752;28;20465;-60
2023/12/25 07:14:38;;;;;;;0.20;0.20;;;;;;;9.59;100.00;100530.75;5092097;28;20012;-60
2023/12/25 07:17:07;;;;;;;0.20;0.20;;;;;;;9.47;100.00;100532.97;5092843;28;20062;-60
2023/12/25 07:19:33;;;;;;;0.25;0.25;;;;;;;9.37;100.00;100532.72;5092536;28;20387;-60
2023/12/25 07:21:58;;;;;;;0.20;0.20;;;;;;;9.31;100.00;100536.78;5092338;28;20520;-60
2023/12/25 07:24:24;;;;;;;0.20;0.20;;;;;;;9.22;100.00;100535.69;5092735;28;20031;-59
2023/12/25 07:26:49;;;;;;;0.20;0.20;;;;;;;9.17;100.00;100536.41;5093009;28;20020;-60
2023/12/25 07:29:14;;;;;;;0.20;0.20;;;;;;;9.13;100.00;100543.13;5091860;28;20417;-60
2023/12/25 07:31:42;;;;;;;0.10;0.10;;;;;;;9.07;100.00;100545.50;5092628;28;20027;-60
2023/12/25 07:34:07;;;;;;;0.20;0.20;;;;;;;9.04;100.00;100540.28;5093213;28;20383;-60
2023/12/25 07:36:32;;;;;;;0.20;0.20;;;;;;;9.00;100.00;100538.44;5091608;28;20036;-60
2023/12/25 07:38:58;;;;;;;0.20;0.20;;;;;;;8.98;100.00;100555.53;5092755;28;20035;-60
2023/12/25 07:41:24;;;;;;;0.30;0.30;;;;;;;8.95;100.00;100551.16;5092550;28;20035;-60
2023/12/25 07:43:49;;;;;;;0.20;0.20;;;;;;;8.92;100.00;100545.03;5092011;28;20020;-60
2023/12/25 07:46:14;;;;;;;0.20;0.20;;;;;;;8.93;100.00;100551.94;5092279;28;20113;-60
2023/12/25 07:48:39;;;;;;;0.20;0.20;;;;;;;8.89;100.00;100550.94;5092826;28;20052;-60
2023/12/25 07:51:05;;;;;;;0.20;0.20;;;;;;;8.87;100.00;100553.47;5092373;28;20089;-60
2023/12/25 07:53:30;;;;;;;0.30;0.30;;;;;;;8.86;100.00;100561.16;5092650;28;20063;-60
2023/12/25 07:55:55;;;;;;;0.20;0.20;;;;;;;8.85;100.00;100559.41;5091792;28;20032;-60
2023/12/25 07:58:21;;;;;;;0.30;0.30;;;;;;;8.84;100.00;100568.78;5092392;28;20043;-60
2023/12/25 08:00:46;;;;;;;0.25;0.25;;;;;;;8.84;100.00;100563.66;5092712;28;20055;-60
2023/12/25 08:03:12;;;;;;;0.20;0.20;;;;;;;8.84;100.00;100581.63;5094862;28;20107;-60
2023/12/25 08:05:38;;;;;;;0.20;0.20;;;;;;;8.84;100.00;100584.19;5096541;28;20024;-60
2023/12/25 08:08:06;;;;;;;0.22;0.22;;;;;;;8.85;100.00;100585.97;5096115;28;20020;-60
2023/12/25 08:10:32;;;;;;;0.22;0.22;;;;;;;8.85;100.00;100580.81;5095017;28;20379;-60
2023/12/25 08:12:58;;;;;;;0.30;0.30;;;;;;;8.86;100.00;100577.44;5096502;28;20024;-60
2023/12/25 08:15:26;;;;;;;0.30;0.30;;;;;;;8.87;100.00;100584.31;5095940;28;20113;-60
2023/12/25 08:17:52;;;;;;;0.30;0.30;;;;;;;8.89;100.00;100589.50;5095404;28;20028;-60
2023/12/25 08:20:17;;;;;;;0.30;0.30;;;;;;;8.90;100.00;100598.97;5095766;28;20012;-60
2023/12/25 08:22:42;;;;;;;0.30;0.30;;;;;;;8.90;100.00;100604.97;5095941;28;20032;-60
2023/12/25 08:25:08;;;;;;;0.28;0.28;;;;;;;8.92;100.00;100610.16;5095213;28;20498;-60
2023/12/25 08:27:33;;;;;;;0.20;0.20;;;;;;;8.91;100.00;100600.72;5095842;28;20416;-60
2023/12/25 08:29:58;;;;;;;0.20;0.20;;;;;;;8.92;100.00;100592.16;5095949;28;20027;-60
2023/12/25 08:32:24;;;;;;;0.20;0.20;;;;;;;8.92;100.00;100607.59;5095176;28;20020;-60
2023/12/25 08:34:49;;;;;;;0.20;0.20;;;;;;;8.93;100.00;100604.19;5095771;28;20032;-60
2023/12/25 08:37:14;;;;;;;0.20;0.20;;;;;;;8.93;100.00;100601.63;5095773;28;20111;-60
2023/12/25 08:39:39;;;;;;;0.20;0.20;;;;;;;8.94;100.00;100602.53;5095164;28;20073;-60
2023/12/25 08:42:05;;;;;;;0.20;0.20;;;;;;;8.95;100.00;100596.53;5095905;28;20020;-60
2023/12/25 08:44:32;;;;;;;0.25;0.25;;;;;;;8.95;100.00;100606.81;5095560;28;20024;-60
2023/12/25 08:46:58;;;;;;;0.20;0.20;;;;;;;8.96;100.00;100619.75;5094870;28;20079;-60
2023/12/25 08:49:23;;;;;;;0.30;0.30;;;;;;;8.95;100.00;100617.09;5095623;28;20055;-60
2023/12/25 08:51:49;;;;;;;0.20;0.20;;;;;;;8.97;100.00;100628.31;5096202;28;20024;-60
2023/12/25 08:54:14;;;;;;;0.28;0.28;;;;;;;8.96;100.00;100622.31;5094680;28;20398;-60
2023/12/25 08:56:39;;;;;;;0.20;0.20;;;;;;;8.95;100.00;100622.22;5095707;28;20028;-61
2023/12/25 08:59:05;;;;;;;0.20;0.20;;;;;;;8.95;100.00;100615.41;5094555;28;20055;-61
2023/12/25 09:01:32;;;;;;;0.20;0.20;;;;;;;8.96;100.00;100614.59;5095255;28;20016;-61
2023/12/25 09:03:57;;;;;;;0.20;0.20;;;;;;;8.97;100.00;100610.31;5095436;28;20364;-61
2023/12/25 09:06:23;;;;;;;0.20;0.20;;;;;;;9.00;100.00;100605.25;5094448;28;20366;-62
2023/12/25 09:08:49;;;;;;;0.20;0.20;;;;;;;8.97;100.00;100595.75;5095391;28;20024;-62
2023/12/25 09:11:14;;;;;;;0.20;0.20;;;;;;;9.01;100.00;100617.28;5094760;28;20028;-62
2023/12/25 09:13:40;;;;;;;0.30;0.30;;;;;;;9.01;100.00;100625.00;5093056;28;20031;-62
2023/12/25 09:16:05;;;;;;;0.20;0.20;;;;;;;9.00;100.00;100619.00;5095307;28;20082;-62
2023/12/25 09:18:30;;;;;;;0.20;0.20;;;;;;;9.02;100.00;100634.47;5094942;28;20446;-62
2023/12/25 09:20:58;;;;;;;0.25;0.25;;;;;;;9.01;100.00;100633.63;5094154;28;20020;-62
2023/12/25 09:23:24;;;;;;;0.20;0.20;;;;;;;8.99;100.00;100642.97;5094459;28;20032;-62
2023/12/25 09:25:49;;;;;;;0.20;0.20;;;;;;;8.98;100.00;100658.34;5095063;28;20027;-62
2023/12/25 09:28:15;;;;;;;0.20;0.20;;;;;;;8.97;100.00;100654.88;5093511;28;20061;-63
2023/12/25 09:30:40;;;;;;;0.20;0.20;;;;;;;8.96;100.00;100670.25;5094623;28;20024;-62
2023/12/25 09:33:06;;;;;;;0.20;0.20;;;;;;;8.97;100.00;100672.88;5094486;28;20035;-62
2023/12/25 09:35:32;;;;;;;0.20;0.20;;;;;;;8.97;100.00;100675.44;5093218;28;20020;-63
2023/12/25 09:37:57;;;;;;;0.20;0.20;;;;;;;9.01;100.00;100673.84;5094877;28;20013;-63
2023/12/25 09:40:22;;;;;;;0.20;0.20;;;;;;;9.02;100.00;100691.03;5094099;28;20524;-63
2023/12/25 09:42:49;;;;;;;0.20;0.20;;;;;;;9.02;100.00;100681.59;5093546;28;20028;-63
2023/12/25 09:45:17;;;;;;;0.20;0.20;;;;;;;9.05;100.00;100683.41;5094074;28;20036;-63
2023/12/25 09:47:44;;;;;;;0.20;0.20;;;;;;;9.07;100.00;100676.63;5094350;28;20065;-63
2023/12/25 09:50:10;;;;;;;0.20;0.20;;;;;;;9.07;100.00;100674.06;5093395;28;20020;-63
2023/12/25 09:52:35;;;;;;;0.20;0.20;;;;;;;9.07;100.00;100663.78;5094356;28;20023;-63
2023/12/25 09:55:01;;;;;;;0.20;0.20;;;;;;;9.08;100.00;100662.97;5093941;28;20039;-63
2023/12/25 09:57:29;;;;;;;0.28;0.28;;;;;;;9.10;100.00;100663.88;5092819;28;20031;-63
2023/12/25 09:59:55;;;;;;;0.28;0.28;;;;;;;9.09;100.00;100674.09;5094998;28;20032;-63
2023/12/25 10:02:22;;;;;;;0.20;0.20;;;;;;;9.07;100.00;100671.47;5093073;28;20124;-63
2023/12/25 10:04:49;;;;;;;0.20;0.20;;;;;;;9.05;100.00;100666.31;5093938;28;20024;-63
2023/12/25 10:07:16;;;;;;;0.20;0.20;;;;;;;9.08;100.00;100675.81;5093876;28;20028;-63
2023/12/25 10:09:42;;;;;;;0.30;0.30;;;;;;;9.08;100.00;100668.09;5093233;28;20051;-63
2023/12/25 10:12:08;;;;;;;0.20;0.20;;;;;;;9.12;100.00;100666.50;5094231;28;20038;-63
2023/12/25 10:14:33;;;;;;;0.20;0.20;;;;;;;9.07;100.00;100671.47;5093717;28;20438;-63
2023/12/25 10:16:59;;;;;;;0.20;0.20;;;;;;;9.08;100.00;100680.94;5092996;28;20452;-63
2023/12/25 10:19:25;;;;;;;0.20;0.20;;;;;;;9.04;100.00;100689.41;5093557;28;20020;-63
2023/12/25 10:21:52;;;;;;;0.25;0.25;;;;;;;9.04;100.00;100676.53;5094391;28;20436;-63
2023/12/25 10:24:18;;;;;;;0.20;0.20;;;;;;;9.05;100.00;100670.56;5092291;28;20024;-63
2023/12/25 10:26:44;;;;;;;0.20;0.20;;;;;;;9.06;100.00;100686.06;5093216;28;20023;-63
2023/12/25 10:29:10;;;;;;;0.20;0.20;;;;;;;9.05;100.00;100681.72;5092798;28;20043;-63
2023/12/25 10:31:40;;;;;;;0.20;0.20;;;;;;;9.07;100.00;100686.91;5092650;28;20383;-63
2023/12/25 10:34:05;;;;;;;0.20;0.20;;;;;;;9.03;100.00;100680.78;5093361;28;20501;-62
2023/12/25 10:36:32;;;;;;;0.30;0.30;;;;;;;9.01;100.00;100687.59;5093078;28;20016;-63
2023/12/25 10:38:57;;;;;;;0.20;0.20;;;;;;;9.01;100.00;100689.28;5092687;28;20456;-63
2023/12/25 10:41:27;;;;;;;0.20;0.20;;;;;;;8.97;100.00;100688.28;5092929;28;20095;-63
2023/12/25 10:43:56;;;;;;;0.20;0.20;;;;;;;8.98;100.00;100684.03;5093344;28;20020;-63
2023/12/25 10:46:24;;;;;;;0.20;0.20;;;;;;;8.93;100.00;100672.72;5092921;28;20106;-63
2023/12/25 10:48:51;;;;;;;0.30;0.30;;;;;;;8.93;100.00;100681.31;5093516;28;20077;-63
2023/12/25 10:51:25;;;;;;;0.28;0.28;;;;;;;8.90;100.00;100686.34;5096718;28;20016;-63
2023/12/25 10:53:51;;;;;;;0.20;0.20;;;;;;;8.87;100.00;100681.09;5094491;28;20422;-63
2023/12/25 10:56:23;;;;;;;0.30;0.30;;;;;;;8.85;100.00;100696.47;5094620;28;20027;-63
2023/12/25 10:58:49;;;;;;;0.20;0.20;;;;;;;8.86;100.00;100679.38;5094177;28;20016;-63
2023/12/25 11:01:28;;;;;;;0.20;0.20;;;;;;;8.88;100.00;100685.41;5094398;28;20024;-63
2023/12/25 11:03:54;;;;;;;0.22;0.22;;;;;;;8.86;100.00;100675.09;5094881;28;20144;-63
2023/12/25 11:06:21;;;;;;;0.28;0.28;;;;;;;8.88;100.00;100677.72;5093591;28;20017;-63
2023/12/25 11:08:47;;;;;;;0.20;0.20;;;;;;;8.86;100.00;100680.22;5094629;28;20391;-62
2023/12/25 11:11:16;;;;;;;0.20;0.20;;;;;;;8.86;100.00;100685.38;5097014;28;20524;-63